METAR Data
IDs: Format: Raw Decoded Include TAF

Data at: 1046 UTC 26 Sep 2018

KFLL 260953Z 12006KT 10SM FEW024 FEW040 FEW250 28/26 A3004 RMK AO2 SLP171 T02830261
KFLL 260853Z 12007KT 10SM FEW024 SCT250 28/26 A3003 RMK AO2 SLP168 T02830256 55015
KFLL 260753Z 13005KT 10SM FEW025 SCT250 28/26 A3003 RMK AO2 SLP168 T02830261
KFLL 260653Z 15007KT 10SM FEW025 SCT250 29/26 A3005 RMK AO2 SLP176 T02890256
KFLL 260553Z 13007KT 10SM SCT025 SCT250 28/25 A3007 RMK AO2 SLP183 OCNL LTGICCC DSNT SW CB DSNT SW T02830250 10294 20283 58006
KFLL 260453Z 16004KT 10SM FEW030TCU FEW040 SCT250 28/22 A3010 RMK AO2 SLP191 OCNL LTGICCC DSNT SW CB DSNT SW TCU N T02830222 403220272
KFLL 260353Z 12009KT 10SM FEW030 SCT250 29/25 A3011 RMK AO2 SLP194 CB DSNT SE MOV NW T02940250
KFLL 260253Z 12009KT 10SM FEW030 29/25 A3009 RMK AO2 SLP189 T02890250 51021
KFLL 260153Z 12010KT 10SM FEW028 FEW250 29/26 A3008 RMK AO2 SLP186 T02940256
KFLL 260053Z 13011KT 10SM FEW030 FEW250 29/25 A3005 RMK AO2 SLP175 T02940250
KFLL 252353Z 12010KT 10SM FEW030 FEW050 SCT250 29/25 A3003 RMK AO2 SLP168 T02940250 10322 20294 53008
KFLL 252253Z 11012KT 10SM FEW032 FEW250 29/26 A3001 RMK AO2 SLP162 CB DSNT SW T02940256
KFLL 252153Z 11013KT 10SM FEW030 FEW160 FEW250 31/26 A3001 RMK AO2 SLP161 CB DSNT W T03060256
KFLL 252053Z 12013KT 10SM FEW030 FEW150 FEW250 31/25 A3001 RMK AO2 SLP160 CB DSNT SW T03110250 56016
KFLL 251953Z 14011KT 10SM FEW030 FEW150 FEW250 31/25 A3002 RMK AO2 LTG DSNT NW SLP166 T03110250
KFLL 251853Z 14011KT 10SM FEW030 FEW150 FEW250 32/25 A3003 RMK AO2 SLP169 T03170250
KFLL 251753Z 13007KT 10SM FEW028 FEW150 FEW250 32/24 A3005 RMK AO2 SLP175 60000 T03170244 10322 20283 58008
KFLL 251653Z 12010KT 10SM FEW028 FEW250 32/26 A3007 RMK AO2 RAB05E15 SLP180 P0000 T03170256
KFLL 251553Z 14006KT 10SM SCT025 SCT100 BKN250 31/26 A3007 RMK AO2 SLP182 T03060261
KFLL 251453Z 14007KT 10SM FEW021 SCT100 BKN250 30/27 A3007 RMK AO2 SLP183 T03000267 51014
KFLL 251353Z 12009KT 10SM FEW023 FEW080 BKN250 30/26 A3006 RMK AO2 SLP179 T03000261
KFLL 251253Z 12006KT 10SM FEW015 FEW080 BKN250 29/26 A3005 RMK AO2 SLP175 T02940261
KFLL 251153Z 10005KT 10SM FEW016 FEW080 BKN250 28/27 A3003 RMK AO2 SLP170 60000 T02830267 10283 20272 53009
KFLL 251053Z 13004KT 10SM FEW021 SCT065 BKN250 28/26 A3002 RMK AO2 RAB17E26 SLP166 P0000 T02780261
KFLL 250953Z 10006KT 10SM FEW025 SCT038 SCT120 BKN250 28/26 A3001 RMK AO2 SLP161 T02780261
KFLL 250853Z 12004KT 10SM SCT025 BKN038 BKN120 BKN250 27/25 A3001 RMK AO2 RAB32E47 SLP160 OCNL LTGICCC DSNT SE-S CB DSNT SE-SE MOV NW P0000 60000 T02720250 55005
KFLL 250753Z 13005KT 10SM FEW025 FEW120 SCT250 28/26 A3000 RMK AO2 LTG DSNT SE SLP160 OCNL LTGICCC DSNT SE CB DSNT SE MOV NW T02780256
KFLL 250653Z 10006KT 10SM FEW025 SCT250 28/26 A3000 RMK AO2 SLP160 CB DSNT N AND SE MOV W T02780256
KFLL 250553Z 10007KT 10SM SCT025 BKN250 28/26 A3002 RMK AO2 SLP165 T02830256 10289 20272 58005
KFLL 250453Z 00000KT 10SM FEW025 SCT100 BKN250 28/26 A3002 RMK AO2 SLP166 OCNL LTGICCC DSNT SE CB DSNT SE MOV W T02780261 403170261
KFLL 250353Z 00000KT 10SM FEW022 SCT040 BKN250 28/26 A3004 RMK AO2 LTG DSNT S SLP173 OCNL LTGICCC DSNT S CB DSNT S MOV W T02780261
KFLL 250253Z 06004KT 10SM SCT025 SCT060 28/26 A3004 RMK AO2 SLP170 T02830256 51023
KFLL 250153Z 06007KT 10SM FEW025 FEW060 28/26 A3003 RMK AO2 SLP167 T02830256
KFLL 250053Z 07008KT 10SM FEW025 28/26 A3000 RMK AO2 SLP157 T02830256
KFLL 242353Z 08009KT 10SM FEW024 FEW250 28/26 A2997 RMK AO2 SLP148 T02830256 10311 20283 53001
KFLL 242253Z 06009KT 10SM SCT023 BKN250 29/26 A2996 RMK AO2 SLP144 MDT CU S SW T02890256